sensor_id;sensor_type;location;lat;lon;timestamp;temperature;humidity
41318;DHT22;27067;51.554;7.026;2023-03-14T00:01:59;16.20;80.50
41318;DHT22;27067;51.554;7.026;2023-03-14T00:04:31;16.20;80.50
41318;DHT22;27067;51.554;7.026;2023-03-14T00:07:07;16.20;80.60
41318;DHT22;27067;51.554;7.026;2023-03-14T00:09:32;16.20;80.60
41318;DHT22;27067;51.554;7.026;2023-03-14T00:11:58;16.20;80.60
41318;DHT22;27067;51.554;7.026;2023-03-14T00:14:24;16.20;80.60
41318;DHT22;27067;51.554;7.026;2023-03-14T00:16:49;16.20;80.60
41318;DHT22;27067;51.554;7.026;2023-03-14T00:19:15;16.20;80.60
41318;DHT22;27067;51.554;7.026;2023-03-14T00:21:41;16.20;81.10
41318;DHT22;27067;51.554;7.026;2023-03-14T00:24:08;16.20;80.60
41318;DHT22;27067;51.554;7.026;2023-03-14T00:26:33;16.20;80.60
41318;DHT22;27067;51.554;7.026;2023-03-14T00:28:59;16.20;80.60
41318;DHT22;27067;51.554;7.026;2023-03-14T00:31:25;16.10;80.60
41318;DHT22;27067;51.554;7.026;2023-03-14T00:33:52;16.20;80.70
41318;DHT22;27067;51.554;7.026;2023-03-14T00:36:19;16.20;80.60
41318;DHT22;27067;51.554;7.026;2023-03-14T00:38:47;16.20;80.60
41318;DHT22;27067;51.554;7.026;2023-03-14T00:41:21;16.20;80.70
41318;DHT22;27067;51.554;7.026;2023-03-14T00:43:48;16.10;80.60
41318;DHT22;27067;51.554;7.026;2023-03-14T00:46:14;16.20;80.70
41318;DHT22;27067;51.554;7.026;2023-03-14T00:48:39;16.10;80.60
41318;DHT22;27067;51.554;7.026;2023-03-14T00:51:06;16.10;80.70
41318;DHT22;27067;51.554;7.026;2023-03-14T00:53:36;16.20;80.70
41318;DHT22;27067;51.554;7.026;2023-03-14T00:56:04;16.20;80.80
41318;DHT22;27067;51.554;7.026;2023-03-14T00:58:30;16.20;80.80
41318;DHT22;27067;51.554;7.026;2023-03-14T01:00:56;16.10;80.70
41318;DHT22;27067;51.554;7.026;2023-03-14T01:03:22;16.10;80.70
41318;DHT22;27067;51.554;7.026;2023-03-14T01:05:49;16.10;80.70
41318;DHT22;27067;51.554;7.026;2023-03-14T01:08:15;16.10;80.70
41318;DHT22;27067;51.554;7.026;2023-03-14T01:10:41;16.10;80.70
41318;DHT22;27067;51.554;7.026;2023-03-14T01:13:08;16.10;80.80
41318;DHT22;27067;51.554;7.026;2023-03-14T01:15:34;16.10;80.80
41318;DHT22;27067;51.554;7.026;2023-03-14T01:18:00;16.20;80.90
41318;DHT22;27067;51.554;7.026;2023-03-14T01:20:26;16.10;80.80
41318;DHT22;27067;51.554;7.026;2023-03-14T01:22:52;16.10;80.80
41318;DHT22;27067;51.554;7.026;2023-03-14T01:25:18;16.10;80.90
41318;DHT22;27067;51.554;7.026;2023-03-14T01:27:43;16.10;80.80
41318;DHT22;27067;51.554;7.026;2023-03-14T01:30:10;16.10;80.90
41318;DHT22;27067;51.554;7.026;2023-03-14T01:32:37;16.10;80.90
41318;DHT22;27067;51.554;7.026;2023-03-14T01:35:03;16.10;80.90
41318;DHT22;27067;51.554;7.026;2023-03-14T01:37:29;16.10;80.90
41318;DHT22;27067;51.554;7.026;2023-03-14T01:39:55;16.10;80.80
41318;DHT22;27067;51.554;7.026;2023-03-14T01:42:21;16.10;80.90
41318;DHT22;27067;51.554;7.026;2023-03-14T01:45:01;16.10;80.90
41318;DHT22;27067;51.554;7.026;2023-03-14T01:47:27;16.10;80.90
41318;DHT22;27067;51.554;7.026;2023-03-14T01:50:03;16.10;80.90
41318;DHT22;27067;51.554;7.026;2023-03-14T01:52:39;16.10;81.00
41318;DHT22;27067;51.554;7.026;2023-03-14T01:55:15;16.10;81.00
41318;DHT22;27067;51.554;7.026;2023-03-14T01:58:00;16.10;81.00
41318;DHT22;27067;51.554;7.026;2023-03-14T02:00:28;16.10;81.00
41318;DHT22;27067;51.554;7.026;2023-03-14T02:02:58;16.10;81.00
41318;DHT22;27067;51.554;7.026;2023-03-14T02:05:29;16.10;81.00
41318;DHT22;27067;51.554;7.026;2023-03-14T02:08:02;16.10;81.00
41318;DHT22;27067;51.554;7.026;2023-03-14T02:10:37;16.10;81.00
41318;DHT22;27067;51.554;7.026;2023-03-14T02:13:04;16.00;80.90
41318;DHT22;27067;51.554;7.026;2023-03-14T02:15:31;16.10;81.00
41318;DHT22;27067;51.554;7.026;2023-03-14T02:17:58;16.10;81.00
41318;DHT22;27067;51.554;7.026;2023-03-14T02:20:36;16.10;81.00
41318;DHT22;27067;51.554;7.026;2023-03-14T02:23:04;16.00;81.00
41318;DHT22;27067;51.554;7.026;2023-03-14T02:25:48;16.10;81.10
41318;DHT22;27067;51.554;7.026;2023-03-14T02:28:16;16.00;81.00
41318;DHT22;27067;51.554;7.026;2023-03-14T02:30:42;16.10;81.10
41318;DHT22;27067;51.554;7.026;2023-03-14T02:33:14;16.00;81.00
41318;DHT22;27067;51.554;7.026;2023-03-14T02:35:50;16.10;81.10
41318;DHT22;27067;51.554;7.026;2023-03-14T02:38:58;16.00;81.10
41318;DHT22;27067;51.554;7.026;2023-03-14T02:41:26;16.00;81.00
41318;DHT22;27067;51.554;7.026;2023-03-14T02:43:52;16.10;81.10
41318;DHT22;27067;51.554;7.026;2023-03-14T02:46:20;16.10;81.10
41318;DHT22;27067;51.554;7.026;2023-03-14T02:49:00;16.10;81.10
41318;DHT22;27067;51.554;7.026;2023-03-14T02:51:27;16.10;81.10
41318;DHT22;27067;51.554;7.026;2023-03-14T02:53:54;16.10;81.10
41318;DHT22;27067;51.554;7.026;2023-03-14T02:56:20;16.00;81.10
41318;DHT22;27067;51.554;7.026;2023-03-14T02:58:45;16.10;81.10
41318;DHT22;27067;51.554;7.026;2023-03-14T03:01:11;16.10;81.10
41318;DHT22;27067;51.554;7.026;2023-03-14T03:03:37;16.10;81.10
41318;DHT22;27067;51.554;7.026;2023-03-14T03:06:03;16.10;81.20
41318;DHT22;27067;51.554;7.026;2023-03-14T03:08:28;16.00;81.10
41318;DHT22;27067;51.554;7.026;2023-03-14T03:10:56;16.10;81.20
41318;DHT22;27067;51.554;7.026;2023-03-14T03:13:21;16.00;81.10
41318;DHT22;27067;51.554;7.026;2023-03-14T03:15:47;16.00;81.20
41318;DHT22;27067;51.554;7.026;2023-03-14T03:18:13;16.10;81.20
41318;DHT22;27067;51.554;7.026;2023-03-14T03:20:39;16.10;81.20
41318;DHT22;27067;51.554;7.026;2023-03-14T03:23:04;16.00;81.20
41318;DHT22;27067;51.554;7.026;2023-03-14T03:25:30;16.10;81.20
41318;DHT22;27067;51.554;7.026;2023-03-14T03:27:57;16.00;81.20
41318;DHT22;27067;51.554;7.026;2023-03-14T03:30:23;16.00;81.80
41318;DHT22;27067;51.554;7.026;2023-03-14T03:32:49;16.00;81.20
41318;DHT22;27067;51.554;7.026;2023-03-14T03:35:15;16.00;81.20
41318;DHT22;27067;51.554;7.026;2023-03-14T03:37:41;16.00;81.20
41318;DHT22;27067;51.554;7.026;2023-03-14T03:40:07;16.00;81.20
41318;DHT22;27067;51.554;7.026;2023-03-14T03:42:34;16.00;81.20
41318;DHT22;27067;51.554;7.026;2023-03-14T03:45:01;16.00;81.20
41318;DHT22;27067;51.554;7.026;2023-03-14T03:47:28;16.00;81.20
41318;DHT22;27067;51.554;7.026;2023-03-14T03:49:55;16.00;81.20
41318;DHT22;27067;51.554;7.026;2023-03-14T03:52:21;16.00;81.20
41318;DHT22;27067;51.554;7.026;2023-03-14T03:54:46;16.00;81.30
41318;DHT22;27067;51.554;7.026;2023-03-14T03:57:12;16.00;81.30
41318;DHT22;27067;51.554;7.026;2023-03-14T03:59:38;16.00;81.20
41318;DHT22;27067;51.554;7.026;2023-03-14T04:02:05;16.00;81.30
41318;DHT22;27067;51.554;7.026;2023-03-14T04:04:31;16.00;81.30
41318;DHT22;27067;51.554;7.026;2023-03-14T04:06:57;16.00;81.30
41318;DHT22;27067;51.554;7.026;2023-03-14T04:09:22;16.00;81.30
41318;DHT22;27067;51.554;7.026;2023-03-14T04:11:48;16.00;81.30
41318;DHT22;27067;51.554;7.026;2023-03-14T04:14:14;16.00;81.30
41318;DHT22;27067;51.554;7.026;2023-03-14T04:16:39;16.00;81.30
41318;DHT22;27067;51.554;7.026;2023-03-14T04:19:05;16.00;81.30
41318;DHT22;27067;51.554;7.026;2023-03-14T04:21:31;16.00;81.30
41318;DHT22;27067;51.554;7.026;2023-03-14T04:23:56;16.00;81.30
41318;DHT22;27067;51.554;7.026;2023-03-14T04:26:22;16.00;81.30
41318;DHT22;27067;51.554;7.026;2023-03-14T04:28:48;16.00;81.30
41318;DHT22;27067;51.554;7.026;2023-03-14T04:31:19;16.00;81.30
41318;DHT22;27067;51.554;7.026;2023-03-14T04:33:45;16.00;81.30
41318;DHT22;27067;51.554;7.026;2023-03-14T04:36:12;16.00;81.30
41318;DHT22;27067;51.554;7.026;2023-03-14T04:38:38;16.00;81.30
41318;DHT22;27067;51.554;7.026;2023-03-14T04:41:04;15.90;81.30
41318;DHT22;27067;51.554;7.026;2023-03-14T04:43:30;15.90;81.30
41318;DHT22;27067;51.554;7.026;2023-03-14T04:45:57;16.00;81.50
41318;DHT22;27067;51.554;7.026;2023-03-14T04:48:23;16.00;81.70
41318;DHT22;27067;51.554;7.026;2023-03-14T04:50:49;16.00;81.90
41318;DHT22;27067;51.554;7.026;2023-03-14T04:53:16;16.00;82.20
41318;DHT22;27067;51.554;7.026;2023-03-14T04:55:42;16.10;82.20
41318;DHT22;27067;51.554;7.026;2023-03-14T04:58:07;16.20;82.10
41318;DHT22;27067;51.554;7.026;2023-03-14T05:00:33;16.30;81.90
41318;DHT22;27067;51.554;7.026;2023-03-14T05:02:59;16.30;81.70
41318;DHT22;27067;51.554;7.026;2023-03-14T05:05:24;16.40;81.50
41318;DHT22;27067;51.554;7.026;2023-03-14T05:07:50;16.50;81.40
41318;DHT22;27067;51.554;7.026;2023-03-14T05:10:16;16.50;81.20
41318;DHT22;27067;51.554;7.026;2023-03-14T05:12:41;16.50;81.10
41318;DHT22;27067;51.554;7.026;2023-03-14T05:15:08;16.60;81.20
41318;DHT22;27067;51.554;7.026;2023-03-14T05:17:34;16.60;81.10
41318;DHT22;27067;51.554;7.026;2023-03-14T05:19:59;16.60;81.20
41318;DHT22;27067;51.554;7.026;2023-03-14T05:22:25;16.70;81.20
41318;DHT22;27067;51.554;7.026;2023-03-14T05:24:51;16.80;81.20
41318;DHT22;27067;51.554;7.026;2023-03-14T05:27:16;16.90;81.10
41318;DHT22;27067;51.554;7.026;2023-03-14T05:29:42;16.90;80.90
41318;DHT22;27067;51.554;7.026;2023-03-14T05:32:08;17.00;80.80
41318;DHT22;27067;51.554;7.026;2023-03-14T05:34:33;17.10;80.60
41318;DHT22;27067;51.554;7.026;2023-03-14T05:36:59;17.10;80.50
41318;DHT22;27067;51.554;7.026;2023-03-14T05:39:25;17.10;80.30
41318;DHT22;27067;51.554;7.026;2023-03-14T05:41:50;17.20;80.20
41318;DHT22;27067;51.554;7.026;2023-03-14T05:44:16;17.20;80.00
41318;DHT22;27067;51.554;7.026;2023-03-14T05:46:42;17.30;79.90
41318;DHT22;27067;51.554;7.026;2023-03-14T05:49:08;17.30;79.80
41318;DHT22;27067;51.554;7.026;2023-03-14T05:51:33;17.30;79.70
41318;DHT22;27067;51.554;7.026;2023-03-14T05:53:59;17.30;79.60
41318;DHT22;27067;51.554;7.026;2023-03-14T05:56:25;17.30;79.60
41318;DHT22;27067;51.554;7.026;2023-03-14T05:58:50;17.30;79.60
41318;DHT22;27067;51.554;7.026;2023-03-14T06:01:16;17.20;79.60
41318;DHT22;27067;51.554;7.026;2023-03-14T06:03:42;17.30;79.70
41318;DHT22;27067;51.554;7.026;2023-03-14T06:06:07;17.20;79.60
41318;DHT22;27067;51.554;7.026;2023-03-14T06:08:33;17.20;79.70
41318;DHT22;27067;51.554;7.026;2023-03-14T06:10:59;17.20;79.80
41318;DHT22;27067;51.554;7.026;2023-03-14T06:13:27;17.10;79.80
41318;DHT22;27067;51.554;7.026;2023-03-14T06:15:53;17.10;79.90
41318;DHT22;27067;51.554;7.026;2023-03-14T06:18:19;17.10;80.00
41318;DHT22;27067;51.554;7.026;2023-03-14T06:20:45;17.10;80.00
41318;DHT22;27067;51.554;7.026;2023-03-14T06:23:10;17.00;80.00
41318;DHT22;27067;51.554;7.026;2023-03-14T06:25:37;17.00;80.10
41318;DHT22;27067;51.554;7.026;2023-03-14T06:28:02;17.00;80.20
41318;DHT22;27067;51.554;7.026;2023-03-14T06:30:28;17.00;80.40
41318;DHT22;27067;51.554;7.026;2023-03-14T06:32:54;17.00;80.40
41318;DHT22;27067;51.554;7.026;2023-03-14T06:35:21;17.00;80.50
41318;DHT22;27067;51.554;7.026;2023-03-14T06:37:46;17.00;80.60
41318;DHT22;27067;51.554;7.026;2023-03-14T06:40:12;17.00;80.60
41318;DHT22;27067;51.554;7.026;2023-03-14T06:42:43;17.00;80.60
41318;DHT22;27067;51.554;7.026;2023-03-14T06:45:09;17.10;80.60
41318;DHT22;27067;51.554;7.026;2023-03-14T06:47:35;17.20;80.60
41318;DHT22;27067;51.554;7.026;2023-03-14T06:50:01;17.20;80.40
41318;DHT22;27067;51.554;7.026;2023-03-14T06:52:27;17.30;80.30
41318;DHT22;27067;51.554;7.026;2023-03-14T06:54:53;17.30;80.10
41318;DHT22;27067;51.554;7.026;2023-03-14T06:57:18;17.40;80.00
41318;DHT22;27067;51.554;7.026;2023-03-14T06:59:44;17.40;79.80
41318;DHT22;27067;51.554;7.026;2023-03-14T07:02:13;17.40;79.70
41318;DHT22;27067;51.554;7.026;2023-03-14T07:04:38;17.40;79.60
41318;DHT22;27067;51.554;7.026;2023-03-14T07:07:04;17.40;79.50
41318;DHT22;27067;51.554;7.026;2023-03-14T07:09:31;17.40;79.50
41318;DHT22;27067;51.554;7.026;2023-03-14T07:11:57;17.40;79.60
41318;DHT22;27067;51.554;7.026;2023-03-14T07:14:23;17.40;79.50
41318;DHT22;27067;51.554;7.026;2023-03-14T07:16:48;17.40;79.60
41318;DHT22;27067;51.554;7.026;2023-03-14T07:19:14;17.40;79.50
41318;DHT22;27067;51.554;7.026;2023-03-14T07:21:40;17.40;79.60
41318;DHT22;27067;51.554;7.026;2023-03-14T07:24:06;17.30;80.00
41318;DHT22;27067;51.554;7.026;2023-03-14T07:26:31;17.30;79.70
41318;DHT22;27067;51.554;7.026;2023-03-14T07:28:57;17.30;79.70
41318;DHT22;27067;51.554;7.026;2023-03-14T07:31:23;17.20;79.70
41318;DHT22;27067;51.554;7.026;2023-03-14T07:33:48;17.20;79.90
41318;DHT22;27067;51.554;7.026;2023-03-14T07:36:14;17.20;79.90
41318;DHT22;27067;51.554;7.026;2023-03-14T07:38:42;17.20;80.00
41318;DHT22;27067;51.554;7.026;2023-03-14T07:41:08;17.20;80.10
41318;DHT22;27067;51.554;7.026;2023-03-14T07:43:33;17.10;80.00
41318;DHT22;27067;51.554;7.026;2023-03-14T07:45:59;17.10;80.10
41318;DHT22;27067;51.554;7.026;2023-03-14T07:48:25;17.10;80.20
41318;DHT22;27067;51.554;7.026;2023-03-14T07:50:52;17.10;80.30
41318;DHT22;27067;51.554;7.026;2023-03-14T07:53:19;17.10;80.40
41318;DHT22;27067;51.554;7.026;2023-03-14T07:55:45;17.10;80.40
41318;DHT22;27067;51.554;7.026;2023-03-14T07:58:12;17.10;80.40
41318;DHT22;27067;51.554;7.026;2023-03-14T08:00:38;17.10;80.40
41318;DHT22;27067;51.554;7.026;2023-03-14T08:03:04;17.20;80.50
41318;DHT22;27067;51.554;7.026;2023-03-14T08:05:29;17.20;80.40
41318;DHT22;27067;51.554;7.026;2023-03-14T08:07:55;17.30;80.40
41318;DHT22;27067;51.554;7.026;2023-03-14T08:10:21;17.40;80.20
41318;DHT22;27067;51.554;7.026;2023-03-14T08:12:50;17.40;80.10
41318;DHT22;27067;51.554;7.026;2023-03-14T08:15:16;17.40;79.90
41318;DHT22;27067;51.554;7.026;2023-03-14T08:17:42;17.40;79.80
41318;DHT22;27067;51.554;7.026;2023-03-14T08:20:08;17.40;79.70
41318;DHT22;27067;51.554;7.026;2023-03-14T08:22:36;17.50;79.70
41318;DHT22;27067;51.554;7.026;2023-03-14T08:25:03;17.40;79.60
41318;DHT22;27067;51.554;7.026;2023-03-14T08:27:29;17.40;79.60
41318;DHT22;27067;51.554;7.026;2023-03-14T08:29:54;17.40;79.60
41318;DHT22;27067;51.554;7.026;2023-03-14T08:32:20;17.40;79.80
41318;DHT22;27067;51.554;7.026;2023-03-14T08:34:46;17.40;79.60
41318;DHT22;27067;51.554;7.026;2023-03-14T08:37:12;17.40;79.70
41318;DHT22;27067;51.554;7.026;2023-03-14T08:39:37;17.30;79.70
41318;DHT22;27067;51.554;7.026;2023-03-14T08:42:03;17.30;79.70
41318;DHT22;27067;51.554;7.026;2023-03-14T08:44:29;17.30;79.80
41318;DHT22;27067;51.554;7.026;2023-03-14T08:46:55;17.30;79.90
41318;DHT22;27067;51.554;7.026;2023-03-14T08:49:20;17.30;79.90
41318;DHT22;27067;51.554;7.026;2023-03-14T08:51:46;17.20;79.90
41318;DHT22;27067;51.554;7.026;2023-03-14T08:54:12;17.20;80.00
41318;DHT22;27067;51.554;7.026;2023-03-14T08:56:37;17.20;80.20
41318;DHT22;27067;51.554;7.026;2023-03-14T08:59:04;17.10;80.00
41318;DHT22;27067;51.554;7.026;2023-03-14T09:01:29;17.10;80.00
41318;DHT22;27067;51.554;7.026;2023-03-14T09:03:55;17.10;80.10
41318;DHT22;27067;51.554;7.026;2023-03-14T09:06:21;17.10;80.20
41318;DHT22;27067;51.554;7.026;2023-03-14T09:08:47;17.10;80.20
41318;DHT22;27067;51.554;7.026;2023-03-14T09:11:13;17.10;80.30
41318;DHT22;27067;51.554;7.026;2023-03-14T09:13:39;17.00;80.20
41318;DHT22;27067;51.554;7.026;2023-03-14T09:16:05;17.00;80.30
41318;DHT22;27067;51.554;7.026;2023-03-14T09:18:31;17.00;80.30
41318;DHT22;27067;51.554;7.026;2023-03-14T09:20:57;17.00;80.40
41318;DHT22;27067;51.554;7.026;2023-03-14T09:23:23;17.00;80.40
41318;DHT22;27067;51.554;7.026;2023-03-14T09:25:48;17.00;80.40
41318;DHT22;27067;51.554;7.026;2023-03-14T09:28:14;17.00;80.40
41318;DHT22;27067;51.554;7.026;2023-03-14T09:30:40;17.00;80.40
41318;DHT22;27067;51.554;7.026;2023-03-14T09:33:06;16.90;80.40
41318;DHT22;27067;51.554;7.026;2023-03-14T09:35:33;16.90;80.40
41318;DHT22;27067;51.554;7.026;2023-03-14T09:37:59;16.90;80.50
41318;DHT22;27067;51.554;7.026;2023-03-14T09:40:31;16.90;80.50
41318;DHT22;27067;51.554;7.026;2023-03-14T09:42:59;16.90;80.50
41318;DHT22;27067;51.554;7.026;2023-03-14T09:45:36;16.80;80.40
41318;DHT22;27067;51.554;7.026;2023-03-14T09:48:03;16.90;80.50
41318;DHT22;27067;51.554;7.026;2023-03-14T09:50:43;16.80;80.50
41318;DHT22;27067;51.554;7.026;2023-03-14T09:53:37;16.80;80.90
41318;DHT22;27067;51.554;7.026;2023-03-14T09:56:13;16.80;80.60
41318;DHT22;27067;51.554;7.026;2023-03-14T09:58:41;16.80;80.60
41318;DHT22;27067;51.554;7.026;2023-03-14T10:01:11;16.80;80.70
41318;DHT22;27067;51.554;7.026;2023-03-14T10:03:39;16.80;80.70
41318;DHT22;27067;51.554;7.026;2023-03-14T10:06:11;16.80;80.70
41318;DHT22;27067;51.554;7.026;2023-03-14T10:08:45;16.80;80.70
41318;DHT22;27067;51.554;7.026;2023-03-14T10:11:15;16.80;80.70
41318;DHT22;27067;51.554;7.026;2023-03-14T10:13:49;16.80;80.70
41318;DHT22;27067;51.554;7.026;2023-03-14T10:16:15;16.80;80.70
41318;DHT22;27067;51.554;7.026;2023-03-14T10:18:45;16.70;80.70
41318;DHT22;27067;51.554;7.026;2023-03-14T10:21:21;16.80;80.70
41318;DHT22;27067;51.554;7.026;2023-03-14T10:23:51;16.80;80.70
41318;DHT22;27067;51.554;7.026;2023-03-14T10:26:18;16.70;80.60
41318;DHT22;27067;51.554;7.026;2023-03-14T10:28:52;16.70;80.70
41318;DHT22;27067;51.554;7.026;2023-03-14T10:31:25;16.70;80.70
41318;DHT22;27067;51.554;7.026;2023-03-14T10:34:21;16.70;80.70
41318;DHT22;27067;51.554;7.026;2023-03-14T10:36:52;16.70;80.80
41318;DHT22;27067;51.554;7.026;2023-03-14T10:39:35;16.70;80.80
41318;DHT22;27067;51.554;7.026;2023-03-14T10:42:28;16.70;80.80
41318;DHT22;27067;51.554;7.026;2023-03-14T10:45:01;16.70;80.80
41318;DHT22;27067;51.554;7.026;2023-03-14T10:47:28;16.70;80.80
41318;DHT22;27067;51.554;7.026;2023-03-14T10:49:55;16.70;80.80
41318;DHT22;27067;51.554;7.026;2023-03-14T10:52:24;16.70;80.80
41318;DHT22;27067;51.554;7.026;2023-03-14T10:55:01;16.70;80.90
41318;DHT22;27067;51.554;7.026;2023-03-14T10:57:27;16.60;80.90
41318;DHT22;27067;51.554;7.026;2023-03-14T10:59:54;16.70;80.90
41318;DHT22;27067;51.554;7.026;2023-03-14T11:08:27;16.60;80.90
41318;DHT22;27067;51.554;7.026;2023-03-14T11:11:17;16.60;80.90
41318;DHT22;27067;51.554;7.026;2023-03-14T11:14:16;16.60;81.50
41318;DHT22;27067;51.554;7.026;2023-03-14T11:17:07;16.60;80.90
41318;DHT22;27067;51.554;7.026;2023-03-14T11:19:43;16.60;80.90
41318;DHT22;27067;51.554;7.026;2023-03-14T11:25:21;16.60;81.00
41318;DHT22;27067;51.554;7.026;2023-03-14T11:28:22;16.50;81.00
41318;DHT22;27067;51.554;7.026;2023-03-14T11:30:53;16.50;81.00
41318;DHT22;27067;51.554;7.026;2023-03-14T11:33:28;16.60;81.10
41318;DHT22;27067;51.554;7.026;2023-03-14T11:36:07;16.50;81.10
41318;DHT22;27067;51.554;7.026;2023-03-14T11:40:59;16.50;81.20
41318;DHT22;27067;51.554;7.026;2023-03-14T11:43:34;16.50;81.20
41318;DHT22;27067;51.554;7.026;2023-03-14T11:46:17;16.50;81.20
41318;DHT22;27067;51.554;7.026;2023-03-14T11:51:49;16.50;81.20
41318;DHT22;27067;51.554;7.026;2023-03-14T11:57:15;16.50;81.30
41318;DHT22;27067;51.554;7.026;2023-03-14T11:59:56;16.50;81.30
41318;DHT22;27067;51.554;7.026;2023-03-14T12:10:55;16.50;81.40
41318;DHT22;27067;51.554;7.026;2023-03-14T12:13:32;16.50;81.40
41318;DHT22;27067;51.554;7.026;2023-03-14T12:16:00;16.40;81.40
41318;DHT22;27067;51.554;7.026;2023-03-14T12:18:34;16.40;81.40
41318;DHT22;27067;51.554;7.026;2023-03-14T12:21:06;16.40;81.40
41318;DHT22;27067;51.554;7.026;2023-03-14T12:23:52;16.50;81.40
41318;DHT22;27067;51.554;7.026;2023-03-14T12:26:22;16.40;81.40
41318;DHT22;27067;51.554;7.026;2023-03-14T12:28:50;16.40;81.40
41318;DHT22;27067;51.554;7.026;2023-03-14T12:45:34;16.60;88.70
41318;DHT22;27067;51.554;7.026;2023-03-14T12:48:43;16.60;87.60
41318;DHT22;27067;51.554;7.026;2023-03-14T12:51:00;16.60;87.00
41318;DHT22;27067;51.554;7.026;2023-03-14T12:59:56;16.50;86.20
41318;DHT22;27067;51.554;7.026;2023-03-14T13:02:26;16.50;86.10
41318;DHT22;27067;51.554;7.026;2023-03-14T13:05:01;16.50;85.90
41318;DHT22;27067;51.554;7.026;2023-03-14T13:10:20;16.50;85.70
41318;DHT22;27067;51.554;7.026;2023-03-14T13:18:01;16.50;85.30
41318;DHT22;27067;51.554;7.026;2023-03-14T13:20:34;16.50;85.20
41318;DHT22;27067;51.554;7.026;2023-03-14T13:23:01;16.40;85.00
41318;DHT22;27067;51.554;7.026;2023-03-14T13:25:32;16.50;85.00
41318;DHT22;27067;51.554;7.026;2023-03-14T13:27:58;16.40;84.90
41318;DHT22;27067;51.554;7.026;2023-03-14T13:30:39;16.40;84.90
41318;DHT22;27067;51.554;7.026;2023-03-14T13:33:05;16.40;84.80
41318;DHT22;27067;51.554;7.026;2023-03-14T13:35:43;16.40;84.80
41318;DHT22;27067;51.554;7.026;2023-03-14T13:38:21;16.40;84.60
41318;DHT22;27067;51.554;7.026;2023-03-14T13:40:49;16.40;84.60
41318;DHT22;27067;51.554;7.026;2023-03-14T13:48:28;16.40;84.30
41318;DHT22;27067;51.554;7.026;2023-03-14T13:51:06;16.40;84.20
41318;DHT22;27067;51.554;7.026;2023-03-14T13:53:52;16.40;84.20
41318;DHT22;27067;51.554;7.026;2023-03-14T13:56:19;16.40;84.10
41318;DHT22;27067;51.554;7.026;2023-03-14T13:58:45;16.40;84.10
41318;DHT22;27067;51.554;7.026;2023-03-14T14:03:58;16.30;83.90
41318;DHT22;27067;51.554;7.026;2023-03-14T14:06:45;16.40;83.90
41318;DHT22;27067;51.554;7.026;2023-03-14T14:09:15;16.40;83.80
41318;DHT22;27067;51.554;7.026;2023-03-14T14:11:48;16.40;83.80
41318;DHT22;27067;51.554;7.026;2023-03-14T14:15:12;16.40;83.70
41318;DHT22;27067;51.554;7.026;2023-03-14T14:17:36;16.30;83.60
41318;DHT22;27067;51.554;7.026;2023-03-14T14:20:06;16.30;83.70
41318;DHT22;27067;51.554;7.026;2023-03-14T14:22:33;16.40;83.60
41318;DHT22;27067;51.554;7.026;2023-03-14T14:25:00;16.40;83.50
41318;DHT22;27067;51.554;7.026;2023-03-14T14:27:34;16.40;83.60
41318;DHT22;27067;51.554;7.026;2023-03-14T14:32:35;16.30;83.50
41318;DHT22;27067;51.554;7.026;2023-03-14T14:35:01;16.30;83.40
41318;DHT22;27067;51.554;7.026;2023-03-14T14:37:31;16.40;83.50
41318;DHT22;27067;51.554;7.026;2023-03-14T14:40:08;16.30;83.40
41318;DHT22;27067;51.554;7.026;2023-03-14T14:42:39;16.30;83.40
41318;DHT22;27067;51.554;7.026;2023-03-14T14:45:26;16.30;83.50
41318;DHT22;27067;51.554;7.026;2023-03-14T14:47:59;16.20;83.50
41318;DHT22;27067;51.554;7.026;2023-03-14T14:51:11;16.30;83.50
41318;DHT22;27067;51.554;7.026;2023-03-14T14:55:51;16.30;83.50
41318;DHT22;27067;51.554;7.026;2023-03-14T14:58:36;16.30;83.40
41318;DHT22;27067;51.554;7.026;2023-03-14T15:01:10;16.30;83.50
41318;DHT22;27067;51.554;7.026;2023-03-14T15:03:37;16.20;83.40
41318;DHT22;27067;51.554;7.026;2023-03-14T15:06:03;16.20;83.40
41318;DHT22;27067;51.554;7.026;2023-03-14T15:08:29;16.20;83.40
41318;DHT22;27067;51.554;7.026;2023-03-14T15:10:56;16.20;83.40
41318;DHT22;27067;51.554;7.026;2023-03-14T15:13:22;16.20;83.40
41318;DHT22;27067;51.554;7.026;2023-03-14T15:15:50;16.20;83.40
41318;DHT22;27067;51.554;7.026;2023-03-14T15:18:29;16.20;83.40
41318;DHT22;27067;51.554;7.026;2023-03-14T15:20:55;16.20;83.50
41318;DHT22;27067;51.554;7.026;2023-03-14T15:23:21;16.20;83.50
41318;DHT22;27067;51.554;7.026;2023-03-14T15:25:48;15.90;83.40
41318;DHT22;27067;51.554;7.026;2023-03-14T15:28:19;16.20;83.70
41318;DHT22;27067;51.554;7.026;2023-03-14T15:30:47;16.20;83.70
41318;DHT22;27067;51.554;7.026;2023-03-14T15:33:14;16.10;83.70
41318;DHT22;27067;51.554;7.026;2023-03-14T15:35:39;16.20;83.80
41318;DHT22;27067;51.554;7.026;2023-03-14T15:38:13;16.10;83.70
41318;DHT22;27067;51.554;7.026;2023-03-14T15:40:39;16.20;84.40
41318;DHT22;27067;51.554;7.026;2023-03-14T15:43:05;16.20;83.80
41318;DHT22;27067;51.554;7.026;2023-03-14T15:45:30;16.10;83.70
41318;DHT22;27067;51.554;7.026;2023-03-14T15:47:56;16.10;83.70
41318;DHT22;27067;51.554;7.026;2023-03-14T15:50:22;16.10;83.60
41318;DHT22;27067;51.554;7.026;2023-03-14T15:52:48;16.20;83.60
41318;DHT22;27067;51.554;7.026;2023-03-14T15:55:14;16.20;83.50
41318;DHT22;27067;51.554;7.026;2023-03-14T15:57:42;16.20;83.50
41318;DHT22;27067;51.554;7.026;2023-03-14T16:00:14;16.20;83.50
41318;DHT22;27067;51.554;7.026;2023-03-14T16:02:41;16.20;83.50
41318;DHT22;27067;51.554;7.026;2023-03-14T16:05:09;16.20;83.50
41318;DHT22;27067;51.554;7.026;2023-03-14T16:07:35;16.20;83.50
41318;DHT22;27067;51.554;7.026;2023-03-14T16:10:01;16.20;83.60
41318;DHT22;27067;51.554;7.026;2023-03-14T16:12:27;16.20;83.80
41318;DHT22;27067;51.554;7.026;2023-03-14T16:14:52;16.20;83.80
41318;DHT22;27067;51.554;7.026;2023-03-14T16:17:18;16.20;83.90
41318;DHT22;27067;51.554;7.026;2023-03-14T16:19:44;16.30;84.00
41318;DHT22;27067;51.554;7.026;2023-03-14T16:22:09;16.30;84.00
41318;DHT22;27067;51.554;7.026;2023-03-14T16:24:35;16.40;83.90
41318;DHT22;27067;51.554;7.026;2023-03-14T16:27:01;16.50;83.90
41318;DHT22;27067;51.554;7.026;2023-03-14T16:29:26;16.50;83.60
41318;DHT22;27067;51.554;7.026;2023-03-14T16:31:52;16.60;83.40
41318;DHT22;27067;51.554;7.026;2023-03-14T16:34:18;16.60;83.10
41318;DHT22;27067;51.554;7.026;2023-03-14T16:36:43;16.70;83.00
41318;DHT22;27067;51.554;7.026;2023-03-14T16:39:09;16.70;82.80
41318;DHT22;27067;51.554;7.026;2023-03-14T16:41:35;16.70;82.60
41318;DHT22;27067;51.554;7.026;2023-03-14T16:44:01;16.70;82.50
41318;DHT22;27067;51.554;7.026;2023-03-14T16:46:27;16.70;82.40
41318;DHT22;27067;51.554;7.026;2023-03-14T16:48:54;16.70;82.40